Weather observations for the past three days for
Mineral Wells, Mineral Wells Airport
Metric (Imperial)
Date Time (cdt) Wind (kph) Vis. (km) Weather Sky Cond. Temperature (ºC) Relative Humidity Wind Chill (°C) Heat Index (°C) Pressure Precipitation (cm)
Air Dwpt 6 hour altimeter (cm) sea level (mb) 1 hr 3 hr 6 hr
Max. Min.
05 09:53 Vrbl 6 16.09 Fair CLR 30.6 20.6 55% 33 76.1 1012.9
05 08:53 Calm 16.09 Fair CLR 26.7 21.7 74% 29 76.1 1013.1
05 07:53 SE 7 16.09 Fair CLR 23.9 21.7 88% 24 76.07 1012.5
05 06:53 SE 11 16.09 Fair CLR 23.3 21.1 27.8 22.8 88% 76.02 1012.1
05 05:53 SE 9 16.09 Fair CLR 23.9 20.6 82% 24 76.02 1011.9
05 04:53 Calm 16.09 Fair CLR 24.4 20.6 79% 25 76.02 1011.9
05 03:53 SE 13 16.09 Fair CLR 25 20 74% 26 76 1011.7
05 02:53 SE 9 16.09 Fair CLR 25 19.4 71% 26 76 1011.6
05 01:53 SE 11 16.09 Fair CLR 25.6 19.4 69% 27 76.05 1012.1
05 00:53 S 9 16.09 Fair CLR 27.2 18.9 35.6 27.2 61% 28 76.02 1012.0
04 23:53 S 11 16.09 Fair CLR 28.9 18.9 55% 30 76 1011.5
04 22:53 SE 13 16.09 Fair CLR 30 18.9 51% 31 75.97 1011.4
04 21:53 SE 13 16.09 Fair CLR 31.1 18.9 48% 32 75.95 1010.9
04 20:53 SE 11 16.09 Fair CLR 32.2 18.9 45% 34 75.9 1010.1
04 19:53 SE 13 16.09 Fair CLR 33.3 17.8 40% 34 75.82 1009.4
04 18:53 SE 19 16.09 Fair CLR 35.6 18.3 37.2 33.3 36% 37 75.79 1009.0
04 17:53 SE 24 16.09 Fair CLR 36.7 19.4 36% 39 75.79 1008.8
04 16:53 S 19 16.09 Fair CLR 36.7 18.9 35% 39 75.84 1009.3
04 15:53 S 15 G 37 16.09 Fair CLR 36.1 18.3 35% 38 75.9 1010.1
04 14:53 SE 26 G 39 16.09 Fair CLR 36.7 19.4 36% 39 75.95 1010.9
04 13:53 SE 19 G 43 16.09 Partly Cloudy SCT110 35 20.6 43% 38 75.97 1011.3
04 12:53 S 20 G 37 16.09 Mostly Cloudy BKN100 33.3 19.4 34.4 24.4 44% 35 76.02 1012.0
04 11:53 S 24 G 35 16.09 Overcast FEW090 OVC110 33.3 20 46% 36 76.07 1012.7
04 10:53 S 17 16.09 Mostly Cloudy BKN100 31.1 17.8 45% 32 76.1 1012.9
04 09:53 S 20 16.09 Mostly Cloudy BKN110 28.9 20 59% 31 76.07 1012.7
04 08:53 SE 17 16.09 A Few Clouds FEW095 26.1 18.3 62% 27 76.07 1012.8
04 07:53 SE 13 16.09 Fair CLR 24.4 18.9 72% 25 76.05 1012.2
04 06:53 SE 15 16.09 Overcast OVC100 25 19.4 26.1 25 71% 26 75.97 1011.3
04 05:53 SE 15 16.09 A Few Clouds FEW120 25.6 22.2 82% 27 75.95 1011.0
04 04:53 S 15 16.09 Fair CLR 25.6 22.2 82% 27 75.95 1010.8
04 03:53 SE 15 16.09 Mostly Cloudy BKN090 25.6 22.8 85% 27 75.95 1010.6
04 02:53 SE 17 16.09 Fair CLR 25 22.2 85% 26 75.95 1010.7
04 01:53 SE 17 16.09 Fair CLR 25.6 22.2 82% 27 75.95 1011.0
04 00:53 SE 17 16.09 Fair CLR 26.1 22.2 33.9 26.1 79% 28 75.95 1011.1
03 23:53 SE 19 16.09 Fair CLR 26.7 21.7 74% 29 75.95 1010.9
03 22:53 SE 26 16.09 Fair CLR 27.2 21.1 69% 29 75.92 1010.7
03 21:53 SE 28 16.09 Fair CLR 28.3 20.6 63% 30 75.9 1010.2
03 20:53 SE 28 G 44 16.09 Fair CLR 30 21.1 59% 33 75.82 1009.2
03 19:53 SE 24 G 43 16.09 Partly Cloudy SCT080 31.7 22.2 57% 36 75.77 1008.7
03 18:53 SE 30 G 41 16.09 Fair CLR 33.9 22.8 37.2 33.3 52% 39 75.74 1008.2
03 17:53 SE 22 G 37 16.09 Fair CLR 35.6 22.8 48% 41 75.69 1007.6
03 16:53 E 19 G 37 16.09 Fair CLR 36.1 22.8 46% 42 75.72 1007.7
03 15:53 SE 17 16.09 Fair CLR 36.1 22.2 45% 41 75.74 1008.3
03 14:53 E 19 G 30 16.09 Fair CLR 36.1 22.2 45% 41 75.82 1009.1
03 13:53 E 24 G 33 16.09 Fair CLR 34.4 22.2 49% 39 75.9 1010.3
03 12:53 S 17 16.09 Fair CLR 33.3 22.2 33.3 22.8 52% 38 75.97 1011.1
03 11:53 SE 17 16.09 Fair CLR 31.1 22.2 59% 35 76 1011.6
03 10:53 SE 17 16.09 Fair CLR 30 22.2 63% 33 76 1011.6
03 09:53 SE 17 16.09 Fair CLR 29.4 21.7 63% 32 75.97 1011.3
03 08:53 SE 20 16.09 Fair CLR 26.7 21.7 74% 29 76 1011.7
03 07:53 SE 13 16.09 Fair CLR 23.9 21.1 84% 24 76 1011.6
03 06:53 SE 9 16.09 Fair CLR 22.8 20.6 27.2 22.8 87% 75.95 1011.1
03 05:53 SE 7 16.09 Fair CLR 23.3 20.6 85% 75.92 1010.7
03 04:53 E 6 16.09 Fair CLR 23.9 20.6 82% 24 75.92 1010.4
03 03:53 SE 6 16.09 Fair CLR 24.4 20.6 79% 25 75.95 1010.8
03 02:53 SE 7 16.09 Fair CLR 25 20.6 77% 26 75.97 1011.1
03 01:53 SE 15 16.09 Fair CLR 26.7 21.1 71% 28 76 1011.4
03 00:53 SE 19 16.09 Fair CLR 27.2 20.6 36.1 27.2 67% 29 76 1011.5
02 23:53 SE 15 16.09 Fair CLR 28.3 20.6 63% 30 75.97 1011.2
02 22:53 SE 19 16.09 Fair CLR 29.4 20 57% 31 75.97 1011.3
02 21:53 SE 13 16.09 Fair CLR 30.6 18.3 48% 32 75.95 1010.9
02 20:53 E 9 16.09 Fair CLR 32.2 17.8 42% 33 75.9 1010.2
02 19:53 E 15 16.09 Fair CLR 33.9 17.8 38% 35 75.87 1009.7
02 18:53 E 17 16.09 Fair CLR 36.1 17.8 38.9 36.1 34% 37 75.84 1009.5
02 17:53 E 20 16.09 Fair CLR 37.8 17.2 30% 39 75.84 1009.3
02 16:53 E 22 G 30 16.09 Fair CLR 38.3 17.2 29% 40 75.84 1009.4
02 15:53 E 19 16.09 Mostly Cloudy BKN080 37.8 17.8 31% 39 75.9 1010.0
02 14:53 E 19 G 30 16.09 A Few Clouds FEW075 37.2 17.8 32% 39 75.95 1010.8
02 13:53 Calm 16.09 Mostly Cloudy BKN070 37.2 18.9 34% 39 76.02 1011.9
02 12:53 S 11 16.09 Partly Cloudy SCT065 SCT080 36.1 18.9 36.7 23.3 36% 38 76.1 1013.0
02 10:53 Calm 16.09 Fair CLR 33.3 20.6 47% 36 76.2 1014.3
Date Time (cdt) Wind (kph) Vis. (km) Weather Sky Cond. Air Dwpt Max. Min. Relative Humidity Wind Chill (°C) Heat Index (°C) altimeter (cm) sea level (mb) 1 hr 3 hr 6 hr
6 hour
Temperature (ºC) Pressure Precipitation (cm)